Accueil
METAR-TAF:

METAR-TAF

Aéroports :

Alpnach, Suisse

latitude: 46-56-19N, longitude: 8-17-03E, altitude: 440 m

Observation

Le bulletin a été fait il y a 28 minutes, à 05:50 UTC
Vent calme
Température 5°C
Humidité 93%
Pression 1018 hPa
Visibilité: 4200 m
Nuages fragmentés à une hauteur de 300 ft
Nuages fragmentés à une hauteur de 1000 ft
Ciel couvert à une hauteur de 1200 ft
faibles averses de pluie, brume

METAR: LSMA 080550Z AUTO 00000KT 4200NDV -SHRA BR BKN003 BKN010 OVC012 05/04 Q1018 RMK

Heure: 07:18 (06:18 UTC)


TAF: absent

Observations et prévisions météorologiques de plus de 4000 aéroports (messages METAR et TAF).

Les stations disponibles sont représentées par des disques jaunes et rouges sur la carte.

Passer la souris dessus pour voir le nom de la station.

Cliquer dessus pour voir les observations et prévisions météorologiques.

Pour changer de carte: cliquez sur les boutons verts avec une croix noire pour zoomer, sur le bouton vert avec un tiret pour effectuer un zoom arrière, ou sur les flèches vertes pour les cartes adjacentes.


METAR-TAF: